createdAt,value
2022-08-18T00:01:24.382Z,7.18
2022-08-18T00:03:56.989Z,6.40
2022-08-18T00:06:29.420Z,6.40
2022-08-18T00:08:59.303Z,6.53
2022-08-18T00:11:27.648Z,5.80
2022-08-18T00:13:54.538Z,6.45
2022-08-18T00:16:21.406Z,7.20
2022-08-18T00:18:48.435Z,5.80
2022-08-18T00:21:15.276Z,5.60
2022-08-18T00:23:42.108Z,5.90
2022-08-18T00:26:08.927Z,5.82
2022-08-18T00:28:35.778Z,5.90
2022-08-18T00:31:04.162Z,6.70
2022-08-18T00:33:31.033Z,5.53
2022-08-18T00:35:58.042Z,6.95
2022-08-18T00:38:25.617Z,6.30
2022-08-18T00:40:54.787Z,6.30
2022-08-18T00:43:46.242Z,5.95
2022-08-18T00:46:25.310Z,5.93
2022-08-18T00:48:52.840Z,6.63
2022-08-18T00:51:48.081Z,5.93
2022-08-18T00:54:15.312Z,6.38
2022-08-18T00:56:55.459Z,5.60
2022-08-18T00:59:51.914Z,5.90
2022-08-18T01:02:28.133Z,7.38
2022-08-18T01:05:01.478Z,7.20
2022-08-18T01:07:48.156Z,5.82
2022-08-18T01:10:18.066Z,7.20
2022-08-18T01:12:47.832Z,5.80
2022-08-18T01:15:27.788Z,6.57
2022-08-18T01:18:15.833Z,5.75
2022-08-18T01:21:10.930Z,7.20
2022-08-18T01:23:39.082Z,5.72
2022-08-18T01:26:06.444Z,6.07
2022-08-18T01:28:36.878Z,6.43
2022-08-18T01:31:04.488Z,6.70
2022-08-18T01:33:36.501Z,7.15
2022-08-18T01:36:14.495Z,6.10
2022-08-18T01:38:42.405Z,6.40
2022-08-18T01:41:27.086Z,6.80
2022-08-18T01:43:56.931Z,5.80
2022-08-18T01:46:24.367Z,7.30
2022-08-18T01:48:53.599Z,5.82
2022-08-18T01:51:36.328Z,6.18
2022-08-18T01:54:14.070Z,5.75
2022-08-18T01:56:42.648Z,6.10
2022-08-18T01:59:14.609Z,6.35
2022-08-18T02:01:50.415Z,6.47
2022-08-18T02:04:35.491Z,6.30
2022-08-18T02:07:07.131Z,6.43
2022-08-18T02:09:34.376Z,5.13
2022-08-18T02:12:01.450Z,5.30
2022-08-18T02:14:31.352Z,6.18
2022-08-18T02:17:02.362Z,6.00
2022-08-18T02:19:43.227Z,5.82
2022-08-18T02:22:17.104Z,5.60
2022-08-18T02:24:45.073Z,5.47
2022-08-18T02:27:13.596Z,5.40
2022-08-18T02:29:41.082Z,5.20
2022-08-18T02:32:08.778Z,6.78
2022-08-18T02:34:36.436Z,5.60
2022-08-18T02:37:04.417Z,5.90
2022-08-18T02:39:33.654Z,5.70
2022-08-18T02:42:00.503Z,5.60
2022-08-18T02:44:27.301Z,5.45
2022-08-18T02:46:55.098Z,5.43
2022-08-18T02:49:22.097Z,5.30
2022-08-18T02:51:51.081Z,7.20
2022-08-18T02:54:20.189Z,5.70
2022-08-18T02:56:47.655Z,5.90
2022-08-18T02:59:21.028Z,5.50
2022-08-18T03:01:53.186Z,5.60
2022-08-18T03:04:29.128Z,5.90
2022-08-18T03:06:59.660Z,7.30
2022-08-18T03:09:27.677Z,5.38
2022-08-18T03:11:54.624Z,6.03
2022-08-18T03:14:21.818Z,5.70
2022-08-18T03:16:53.883Z,5.82
2022-08-18T03:19:26.391Z,5.60
2022-08-18T03:21:57.278Z,5.97
2022-08-18T03:24:27.916Z,5.47
2022-08-18T03:26:59.071Z,6.60
2022-08-18T03:29:31.311Z,5.80
2022-08-18T03:31:59.549Z,5.53
2022-08-18T03:34:26.391Z,6.20
2022-08-18T03:36:53.661Z,6.03
2022-08-18T03:39:23.572Z,5.50
2022-08-18T03:42:00.093Z,7.20
2022-08-18T03:44:34.076Z,7.20
2022-08-18T03:47:04.507Z,5.85
2022-08-18T03:49:33.396Z,5.70
2022-08-18T03:52:00.999Z,5.87
2022-08-18T03:54:28.585Z,5.60
2022-08-18T03:56:56.037Z,6.60
2022-08-18T03:59:27.314Z,6.53
2022-08-18T04:01:55.342Z,6.97
2022-08-18T04:04:25.439Z,7.10
2022-08-18T04:06:55.536Z,6.15
2022-08-18T04:09:24.621Z,5.60
2022-08-18T04:11:51.923Z,6.13
2022-08-18T04:14:22.207Z,5.75
2022-08-18T04:16:49.307Z,8.57
2022-08-18T04:19:22.732Z,6.00
2022-08-18T04:21:56.803Z,5.38
2022-08-18T04:24:25.971Z,5.40
2022-08-18T04:26:53.320Z,6.80
2022-08-18T04:29:21.584Z,5.40
2022-08-18T04:31:50.265Z,6.13
2022-08-18T04:34:20.529Z,6.00
2022-08-18T04:36:48.230Z,5.35
2022-08-18T04:39:15.826Z,5.78
2022-08-18T04:41:44.065Z,5.70
2022-08-18T04:44:12.840Z,6.38
2022-08-18T04:46:48.147Z,7.25
2022-08-18T04:49:16.916Z,6.00
2022-08-18T04:52:36.907Z,6.10
2022-08-18T04:54:52.630Z,5.30
2022-08-18T04:57:21.253Z,6.03
2022-08-18T04:59:50.571Z,6.30
2022-08-18T05:02:20.290Z,6.30
2022-08-18T05:04:47.223Z,6.70
2022-08-18T05:07:17.754Z,5.60
2022-08-18T05:09:44.740Z,5.75
2022-08-18T05:12:14.212Z,5.68
2022-08-18T05:14:44.617Z,6.10
2022-08-18T05:17:12.221Z,6.75
2022-08-18T05:19:42.230Z,5.30
2022-08-18T05:22:13.823Z,7.90
2022-08-18T05:24:41.411Z,6.00
2022-08-18T05:27:08.233Z,5.20
2022-08-18T05:29:45.910Z,6.00
2022-08-18T05:32:40.923Z,5.50
2022-08-18T05:35:09.833Z,5.55
2022-08-18T05:38:03.075Z,5.40
2022-08-18T05:40:31.825Z,5.55
2022-08-18T05:43:00.082Z,6.50
2022-08-18T05:45:27.206Z,5.90
2022-08-18T05:48:00.119Z,6.18
2022-08-18T05:50:28.971Z,5.90
2022-08-18T05:53:14.057Z,6.30
2022-08-18T05:56:21.974Z,5.90
2022-08-18T05:58:55.704Z,6.13
2022-08-18T06:01:27.492Z,6.43
2022-08-18T06:04:11.788Z,5.40
2022-08-18T06:06:38.897Z,5.55
2022-08-18T06:09:18.076Z,6.13
2022-08-18T06:11:45.573Z,5.40
2022-08-18T06:14:13.523Z,5.85
2022-08-18T06:16:56.369Z,5.50
2022-08-18T06:19:44.707Z,5.82
2022-08-18T06:22:33.921Z,6.20
2022-08-18T06:25:17.823Z,6.60
2022-08-18T06:28:15.923Z,6.90
2022-08-18T06:30:42.736Z,6.90
2022-08-18T06:33:29.800Z,6.00
2022-08-18T06:36:03.820Z,6.00
2022-08-18T06:38:39.624Z,6.70
2022-08-18T06:41:42.823Z,6.65
2022-08-18T06:44:13.279Z,5.90
2022-08-18T06:46:56.032Z,5.70
2022-08-18T06:49:45.348Z,5.95
2022-08-18T06:52:34.225Z,6.40
2022-08-18T06:55:07.658Z,7.15
2022-08-18T06:57:52.981Z,7.25
2022-08-18T07:00:19.893Z,7.80
2022-08-18T07:02:56.423Z,8.55
2022-08-18T07:05:32.866Z,8.70
2022-08-18T07:08:18.457Z,7.35
2022-08-18T07:10:48.466Z,7.65
2022-08-18T07:13:20.707Z,7.47
2022-08-18T07:15:48.644Z,8.10
2022-08-18T07:18:24.566Z,8.20
2022-08-18T07:21:02.001Z,8.80
2022-08-18T07:23:40.859Z,9.93
2022-08-18T07:26:17.924Z,7.93
2022-08-18T07:28:46.216Z,8.07
2022-08-18T07:31:26.096Z,8.10
2022-08-18T07:34:16.909Z,7.50
2022-08-18T07:37:08.858Z,8.32
2022-08-18T07:39:47.416Z,7.30
2022-08-18T07:42:53.865Z,7.43
2022-08-18T07:45:42.289Z,7.20
2022-08-18T07:51:25.191Z,8.67
2022-08-18T07:54:45.313Z,7.65
2022-08-18T07:57:16.476Z,6.78
2022-08-18T08:00:20.788Z,7.03
2022-08-18T08:03:30.612Z,7.00
2022-08-18T08:06:04.674Z,7.63
2022-08-18T08:08:37.594Z,7.80
2022-08-18T08:11:27.408Z,7.60
2022-08-18T08:14:10.093Z,7.65
2022-08-18T08:16:57.333Z,7.90
2022-08-18T08:19:56.770Z,7.57
2022-08-18T08:22:22.909Z,7.30
2022-08-18T08:25:45.920Z,7.07
2022-08-18T08:28:42.637Z,6.43
2022-08-18T08:31:42.547Z,8.20
2022-08-18T08:34:35.938Z,6.85
2022-08-18T08:37:15.096Z,7.40
2022-08-18T08:40:13.980Z,7.15
2022-08-18T08:43:04.134Z,7.50
2022-08-18T08:45:37.801Z,7.20
2022-08-18T08:48:20.472Z,7.73
2022-08-18T08:51:06.301Z,7.40
2022-08-18T08:54:03.838Z,7.25
2022-08-18T08:56:36.452Z,6.60
2022-08-18T08:59:11.254Z,7.57
2022-08-18T09:01:57.762Z,7.10
2022-08-18T09:04:27.437Z,8.00
2022-08-18T09:07:35.688Z,7.30
2022-08-18T09:10:11.441Z,7.50
2022-08-18T09:12:53.526Z,7.37
2022-08-18T09:15:59.252Z,6.82
2022-08-18T09:19:01.394Z,7.50
2022-08-18T09:21:38.133Z,6.80
2022-08-18T09:24:22.791Z,7.73
2022-08-18T09:27:03.475Z,6.55
2022-08-18T09:29:43.921Z,8.73
2022-08-18T09:32:20.192Z,7.93
2022-08-18T09:35:11.342Z,6.60
2022-08-18T09:38:26.663Z,7.40
2022-08-18T09:41:19.236Z,6.20
2022-08-18T09:44:12.003Z,7.30
2022-08-18T09:46:47.774Z,6.40
2022-08-18T09:49:26.993Z,6.60
2022-08-18T09:52:21.230Z,7.30
2022-08-18T09:55:06.483Z,6.63
2022-08-18T09:57:42.055Z,7.07
2022-08-18T10:00:12.449Z,6.88
2022-08-18T10:02:40.325Z,6.75
2022-08-18T10:05:16.762Z,6.70
2022-08-18T10:08:03.731Z,6.80
2022-08-18T10:11:01.802Z,7.13
2022-08-18T10:13:48.327Z,7.07
2022-08-18T10:16:25.781Z,6.68
2022-08-18T10:18:55.765Z,5.45
2022-08-18T10:21:31.383Z,6.40
2022-08-18T10:24:29.908Z,6.18
2022-08-18T10:26:54.835Z,6.00
2022-08-18T10:29:25.739Z,5.30
2022-08-18T10:31:55.598Z,5.72
2022-08-18T10:37:46.265Z,5.50
2022-08-18T10:40:22.140Z,5.20
2022-08-18T10:43:45.831Z,5.97
2022-08-18T10:46:42.557Z,6.43
2022-08-18T10:49:13.549Z,6.80
2022-08-18T10:52:09.422Z,6.00
2022-08-18T10:54:54.820Z,7.10
2022-08-18T10:57:49.595Z,6.45
2022-08-18T11:00:22.839Z,7.30
2022-08-18T11:03:50.709Z,6.20
2022-08-18T11:09:01.399Z,5.75
2022-08-18T11:11:53.171Z,6.80
2022-08-18T11:14:44.111Z,5.80
2022-08-18T11:17:17.203Z,5.85
2022-08-18T11:19:46.561Z,5.45
2022-08-18T11:25:33.272Z,5.90
2022-08-18T11:28:01.637Z,5.93
2022-08-18T11:30:41.990Z,6.32
2022-08-18T11:33:22.843Z,5.97
2022-08-18T11:35:59.378Z,5.60
2022-08-18T11:38:31.259Z,6.37
2022-08-18T11:41:47.830Z,5.95
2022-08-18T11:44:21.243Z,6.03
2022-08-18T11:46:52.071Z,7.30
2022-08-18T11:49:45.605Z,5.60
2022-08-18T11:52:33.045Z,7.22
2022-08-18T11:55:48.295Z,6.05
2022-08-18T11:58:45.953Z,5.50
2022-08-18T12:04:39.595Z,6.70
2022-08-18T12:07:08.242Z,7.00
2022-08-18T12:10:17.779Z,7.22
2022-08-18T12:12:30.973Z,6.43
2022-08-18T12:15:17.480Z,6.37
2022-08-18T12:17:52.234Z,7.60
2022-08-18T12:20:20.189Z,7.25
2022-08-18T12:22:49.197Z,7.50
2022-08-18T12:25:24.668Z,7.45
2022-08-18T12:27:55.648Z,6.30
2022-08-18T12:30:23.293Z,7.70
2022-08-18T12:35:38.436Z,7.97
2022-08-18T12:38:13.752Z,7.00
2022-08-18T12:40:41.693Z,7.07
2022-08-18T12:43:09.091Z,7.80
2022-08-18T12:45:38.006Z,7.50
2022-08-18T12:50:54.411Z,8.73
2022-08-18T12:53:29.497Z,7.43
2022-08-18T12:56:06.831Z,7.75
2022-08-18T12:58:36.382Z,8.13
2022-08-18T13:01:03.873Z,8.07
2022-08-18T13:03:31.364Z,6.40
2022-08-18T13:06:02.478Z,6.88
2022-08-18T13:08:30.540Z,6.90
2022-08-18T13:11:14.703Z,7.10
2022-08-18T13:13:42.697Z,6.80
2022-08-18T13:16:10.524Z,7.13
2022-08-18T13:18:43.380Z,7.97
2022-08-18T13:21:12.636Z,7.40
2022-08-18T13:23:40.112Z,7.17
2022-08-18T13:26:21.519Z,8.48
2022-08-18T13:28:51.565Z,7.80
2022-08-18T13:31:25.955Z,7.22
2022-08-18T13:33:57.871Z,7.47
2022-08-18T13:36:44.312Z,7.80
2022-08-18T13:39:18.643Z,7.10
2022-08-18T13:41:48.989Z,7.80
2022-08-18T13:44:18.699Z,8.77
2022-08-18T13:46:47.334Z,7.50
2022-08-18T13:49:23.439Z,8.90
2022-08-18T13:51:59.295Z,8.27
2022-08-18T13:54:36.119Z,8.38
2022-08-18T13:57:04.898Z,8.43
2022-08-18T13:59:34.084Z,8.60
2022-08-18T14:02:05.864Z,8.10
2022-08-18T14:04:38.350Z,8.38
2022-08-18T14:07:10.427Z,9.23
2022-08-18T14:09:39.442Z,9.05
2022-08-18T14:12:15.281Z,9.10
2022-08-18T14:14:48.548Z,8.73
2022-08-18T14:17:19.638Z,8.80
2022-08-18T14:20:10.220Z,8.20
2022-08-18T14:22:56.447Z,9.40
2022-08-18T14:25:41.696Z,9.13
2022-08-18T14:28:09.311Z,9.05
2022-08-18T14:30:39.802Z,9.88
2022-08-18T14:33:14.968Z,9.63
2022-08-18T14:36:06.816Z,9.20
2022-08-18T14:38:29.288Z,8.90
2022-08-18T14:41:00.173Z,8.70
2022-08-18T14:43:26.994Z,9.00
2022-08-18T14:46:14.165Z,8.45
2022-08-18T14:48:42.552Z,9.10
2022-08-18T14:51:14.428Z,9.27
2022-08-18T14:53:41.339Z,9.00
2022-08-18T14:56:09.056Z,8.38
2022-08-18T14:58:37.226Z,8.70
2022-08-18T15:01:10.567Z,8.32
2022-08-18T15:03:39.111Z,8.50
2022-08-18T15:06:07.597Z,8.40
2022-08-18T15:08:36.278Z,8.97
2022-08-18T15:11:11.435Z,8.88
2022-08-18T15:13:41.621Z,8.85
2022-08-18T15:16:13.419Z,9.20
2022-08-18T15:18:42.277Z,9.95
2022-08-18T15:21:38.692Z,10.32
2022-08-18T15:24:25.834Z,7.93
2022-08-18T15:26:57.592Z,8.35
2022-08-18T15:29:28.079Z,8.40
2022-08-18T15:32:05.728Z,9.10
2022-08-18T15:34:47.330Z,8.05
2022-08-18T15:37:22.139Z,8.30
2022-08-18T15:40:01.143Z,8.52
2022-08-18T15:42:29.727Z,8.95
2022-08-18T15:44:56.780Z,8.82
2022-08-18T15:47:25.240Z,8.80
2022-08-18T15:49:52.552Z,8.02
2022-08-18T15:52:23.315Z,8.80
2022-08-18T15:54:51.022Z,8.63
2022-08-18T15:57:38.545Z,8.30
2022-08-18T16:00:06.194Z,9.30
2022-08-18T16:02:33.693Z,7.85
2022-08-18T16:05:10.344Z,8.88
2022-08-18T16:07:45.105Z,8.43
2022-08-18T16:10:13.561Z,8.40
2022-08-18T16:12:45.582Z,7.90
2022-08-18T16:15:15.711Z,7.38
2022-08-18T16:17:47.697Z,8.10
2022-08-18T16:20:15.299Z,8.40
2022-08-18T16:22:42.170Z,7.30
2022-08-18T16:25:09.775Z,7.95
2022-08-18T16:27:41.650Z,8.30
2022-08-18T16:30:14.449Z,8.10
2022-08-18T16:32:42.379Z,8.38
2022-08-18T16:35:09.977Z,7.82
2022-08-18T16:37:37.022Z,7.53
2022-08-18T16:40:05.062Z,7.85
2022-08-18T16:42:35.228Z,8.00
2022-08-18T16:45:03.981Z,7.53
2022-08-18T16:47:32.813Z,7.40
2022-08-18T16:50:01.600Z,8.07
2022-08-18T16:52:28.473Z,7.90
2022-08-18T16:54:57.991Z,8.32
2022-08-18T16:57:53.350Z,8.82
2022-08-18T17:00:39.338Z,7.68
2022-08-18T17:03:26.049Z,7.80
2022-08-18T17:06:11.501Z,8.13
2022-08-18T17:08:39.843Z,8.90
2022-08-18T17:11:09.829Z,8.55
2022-08-18T17:13:39.220Z,8.13
2022-08-18T17:16:07.495Z,8.18
2022-08-18T17:18:36.061Z,7.93
2022-08-18T17:21:04.435Z,8.40
2022-08-18T17:23:32.519Z,8.38
2022-08-18T17:26:00.800Z,8.65
2022-08-18T17:28:50.774Z,8.47
2022-08-18T17:31:24.497Z,8.77
2022-08-18T17:33:55.576Z,7.85
2022-08-18T17:36:33.630Z,8.70
2022-08-18T17:39:04.296Z,8.25
2022-08-18T17:41:31.201Z,8.40
2022-08-18T17:44:00.851Z,9.30
2022-08-18T17:46:38.158Z,8.82
2022-08-18T17:49:10.789Z,10.07
2022-08-18T17:51:52.659Z,8.75
2022-08-18T17:54:36.895Z,8.53
2022-08-18T17:57:13.994Z,9.50
2022-08-18T18:00:07.976Z,9.00
2022-08-18T18:02:34.831Z,9.13
2022-08-18T18:05:04.403Z,9.73
2022-08-18T18:07:39.521Z,9.95
2022-08-18T18:10:22.895Z,10.30
2022-08-18T18:13:32.531Z,11.25
2022-08-18T18:16:02.336Z,10.35
2022-08-18T18:18:42.659Z,10.52
2022-08-18T18:21:15.359Z,10.65
2022-08-18T18:23:59.322Z,11.30
2022-08-18T18:26:32.920Z,10.98
2022-08-18T18:29:37.684Z,11.50
2022-08-18T18:32:25.355Z,12.02
2022-08-18T18:35:10.926Z,12.00
2022-08-18T18:37:47.416Z,11.38
2022-08-18T18:40:29.368Z,11.75
2022-08-18T18:43:00.434Z,12.10
2022-08-18T18:45:30.691Z,13.18
2022-08-18T18:48:45.019Z,12.82
2022-08-18T18:51:10.481Z,11.25
2022-08-18T18:54:13.150Z,11.70
2022-08-18T18:56:51.646Z,11.77
2022-08-18T18:59:38.721Z,11.30
2022-08-18T19:02:34.521Z,11.18
2022-08-18T19:05:17.741Z,11.52
2022-08-18T19:08:16.333Z,12.65
2022-08-18T19:10:59.450Z,11.90
2022-08-18T19:13:32.960Z,12.20
2022-08-18T19:16:22.728Z,11.52
2022-08-18T19:18:57.794Z,12.20
2022-08-18T19:22:04.050Z,11.90
2022-08-18T19:24:38.653Z,12.50
2022-08-18T19:27:10.585Z,11.18
2022-08-18T19:29:43.050Z,11.35
2022-08-18T19:32:39.749Z,11.57
2022-08-18T19:35:12.018Z,11.27
2022-08-18T19:37:44.854Z,11.95
2022-08-18T19:40:14.309Z,12.05
2022-08-18T19:42:53.599Z,31.23
2022-08-18T19:45:23.361Z,19.88
2022-08-18T19:47:56.879Z,16.17
2022-08-18T19:50:34.240Z,13.73
2022-08-18T19:53:21.887Z,12.27
2022-08-18T19:55:51.468Z,12.47
2022-08-18T19:59:18.301Z,13.43
2022-08-18T20:02:12.002Z,13.85
2022-08-18T20:05:04.854Z,14.50
2022-08-18T20:08:06.779Z,13.85
2022-08-18T20:10:57.801Z,13.52
2022-08-18T20:13:33.779Z,13.50
2022-08-18T20:16:10.448Z,13.87
2022-08-18T20:18:43.399Z,14.40
2022-08-18T20:21:20.223Z,13.30
2022-08-18T20:23:56.501Z,12.70
2022-08-18T20:26:38.514Z,11.88
2022-08-18T20:29:09.413Z,12.90
2022-08-18T20:31:45.253Z,11.10
2022-08-18T20:34:14.700Z,11.70
2022-08-18T20:36:43.871Z,11.38
2022-08-18T20:39:32.288Z,11.57
2022-08-18T20:42:03.813Z,11.30
2022-08-18T20:44:37.343Z,11.10
2022-08-18T20:47:09.909Z,12.60
2022-08-18T20:50:03.843Z,11.32
2022-08-18T20:52:48.569Z,10.20
2022-08-18T20:55:48.757Z,11.55
2022-08-18T20:58:25.268Z,10.60
2022-08-18T21:00:57.027Z,10.57
2022-08-18T21:03:38.359Z,9.15
2022-08-18T21:06:06.197Z,8.90
2022-08-18T21:08:36.577Z,10.47
2022-08-18T21:11:19.796Z,9.90
2022-08-18T21:13:58.833Z,8.57
2022-08-18T21:16:41.461Z,6.50
2022-08-18T21:19:23.562Z,9.00
2022-08-18T21:22:03.948Z,7.38
2022-08-18T21:24:38.849Z,7.60
2022-08-18T21:27:26.273Z,7.40
2022-08-18T21:29:56.564Z,6.85
2022-08-18T21:32:36.320Z,8.30
2022-08-18T21:35:18.936Z,7.50
2022-08-18T21:37:56.733Z,8.48
2022-08-18T21:40:49.779Z,9.10
2022-08-18T21:43:49.400Z,6.47
2022-08-18T21:46:27.264Z,5.07
2022-08-18T21:48:55.842Z,5.88
2022-08-18T21:51:32.539Z,5.43
2022-08-18T21:54:00.449Z,5.70
2022-08-18T21:56:33.453Z,5.65
2022-08-18T21:59:07.958Z,5.97
2022-08-18T22:01:35.561Z,6.30
2022-08-18T22:04:32.047Z,5.10
2022-08-18T22:07:32.088Z,5.60
2022-08-18T22:10:36.680Z,5.60
2022-08-18T22:13:22.256Z,5.63
2022-08-18T22:15:50.940Z,5.13
2022-08-18T22:18:17.858Z,6.07
2022-08-18T22:20:48.977Z,6.70
2022-08-18T22:23:34.582Z,5.88
2022-08-18T22:26:20.169Z,6.35
2022-08-18T22:28:58.357Z,6.10
2022-08-18T22:31:46.816Z,5.78
2022-08-18T22:34:27.052Z,6.85
2022-08-18T22:36:59.793Z,6.80
2022-08-18T22:39:28.514Z,6.70
2022-08-18T22:41:55.989Z,6.70
2022-08-18T22:44:23.344Z,6.80
2022-08-18T22:46:51.016Z,6.57
2022-08-18T22:49:18.682Z,6.70
2022-08-18T22:51:48.348Z,7.50
2022-08-18T22:54:16.213Z,6.67
2022-08-18T22:56:53.851Z,6.90
2022-08-18T22:59:25.411Z,6.90
2022-08-18T23:01:54.560Z,6.80
2022-08-18T23:04:24.590Z,6.85
2022-08-18T23:06:53.669Z,7.40
2022-08-18T23:09:30.572Z,6.65
2022-08-18T23:12:04.534Z,8.20
2022-08-18T23:14:32.440Z,7.82
2022-08-18T23:17:00.529Z,7.40
2022-08-18T23:19:29.083Z,7.60
2022-08-18T23:21:56.008Z,7.70
2022-08-18T23:24:22.858Z,6.85
2022-08-18T23:26:49.955Z,6.60
2022-08-18T23:29:18.761Z,6.60
2022-08-18T23:31:46.589Z,7.75
2022-08-18T23:34:16.912Z,7.05
2022-08-18T23:36:45.939Z,8.20
2022-08-18T23:39:13.965Z,6.80
2022-08-18T23:41:41.228Z,7.28
2022-08-18T23:44:08.115Z,7.10
2022-08-18T23:46:35.778Z,7.75
2022-08-18T23:49:04.508Z,7.43
2022-08-18T23:51:41.585Z,7.43
2022-08-18T23:54:18.286Z,7.32
2022-08-18T23:56:46.202Z,7.40
2022-08-18T23:59:14.386Z,9.00
